Time;durP1;ratioP1;P1;durP2;ratioP2;P2;SDS_P1;SDS_P2;PMS_P1;PMS_P2;Temp;Humidity;BMP_temperature;BMP_pressure;BME280_temperature;BME280_humidity;BME280_pressure;Samples;Min_cycle;Max_cycle;Signal;HPM_P1;HPM_P2
2021/12/11 00:00:17;;;;;;;;;;;;;;;7.27;100.00;98770.53;1738110;82;20162;-72
2021/12/11 00:02:46;;;;;;;;;;;;;;;7.26;100.00;98772.94;1736864;82;20087;-71
2021/12/11 00:05:14;;;;;;;;;;;;;;;7.27;100.00;98780.67;1737620;82;21170;-69
2021/12/11 00:07:42;;;;;;;;;;;;;;;7.30;100.00;98765.52;1737140;82;20182;-73
2021/12/11 00:10:18;;;;;;;;;;;;;;;7.35;100.00;98723.89;1737690;82;20107;-70
2021/12/11 00:12:47;;;;;;;;;;;;;;;7.42;100.00;98779.23;1738226;82;20685;-72
2021/12/11 00:15:20;;;;;;;;;;;;;;;7.43;100.00;98770.97;1738028;82;20167;-71
2021/12/11 00:17:47;;;;;;;;;;;;;;;7.44;100.00;98785.12;1708683;82;21138;-71
2021/12/11 00:20:17;;;;;;;;;;;;;;;7.39;100.00;98787.21;1693629;83;20097;-71
2021/12/11 00:22:45;;;;;;;;;;;;;;;7.41;100.00;98782.44;1693470;83;20077;-71
2021/12/11 00:25:13;;;;;;;;;;;;;;;7.34;100.00;98780.48;1703269;82;20670;-72
2021/12/11 00:27:42;;;;;;;;;;;;;;;7.34;100.00;98780.48;1701130;83;20486;-73
2021/12/11 00:30:10;;;;;;;;;;;;;;;7.29;100.00;98771.89;1700648;83;21820;-72
2021/12/11 00:32:37;;;;;;;;;;;;;;;7.29;100.00;98784.44;1700690;83;20423;-72
2021/12/11 00:35:13;;;;;;;;;;;;;;;7.30;100.00;98794.08;1706647;82;20150;-72
2021/12/11 00:37:40;;;;;;;;;;;;;;;7.29;100.00;98796.45;1708049;83;20203;-73
2021/12/11 00:40:17;;;;;;;;;;;;;;;7.25;100.00;98793.49;1713160;83;20438;-72
2021/12/11 00:42:53;;;;;;;;;;;;;;;7.25;100.00;98788.66;1707088;82;21212;-72
2021/12/11 00:45:22;;;;;;;;;;;;;;;7.23;100.00;98793.47;1715598;83;20522;-71
2021/12/11 00:47:54;;;;;;;;;;;;;;;7.25;100.00;98794.00;1702149;83;20125;-70
2021/12/11 00:50:25;;;;;;;;;;;;;;;7.31;100.00;98795.68;1700619;83;20618;-70
2021/12/11 00:53:00;;;;;;;;;;;;;;;7.32;100.00;98805.82;1700503;83;20148;-71
2021/12/11 00:55:31;;;;;;;;;;;;;;;7.27;100.00;98808.70;1701242;82;21780;-69
2021/12/11 00:58:07;;;;;;;;;;;;;;;7.23;100.00;98796.14;1723632;82;20212;-69
2021/12/11 01:00:37;;;;;;;;;;;;;;;7.20;100.00;98814.79;1702519;83;20101;-70
2021/12/11 01:03:05;;;;;;;;;;;;;;;7.22;100.00;98833.20;1701644;83;20502;-70
2021/12/11 01:05:40;;;;;;;;;;;;;;;7.21;100.00;98818.27;1702660;83;20129;-69
2021/12/11 01:08:19;;;;;;;;;;;;;;;7.20;100.00;98821.97;1702163;83;21830;-70
2021/12/11 01:10:47;;;;;;;;;;;;;;;7.17;100.00;98825.94;1702491;83;20150;-70
2021/12/11 01:13:18;;;;;;;;;;;;;;;7.11;100.00;98820.28;1702525;83;20101;-71
2021/12/11 01:15:55;;;;;;;;;;;;;;;7.08;100.00;98828.26;1702272;83;20097;-69
2021/12/11 01:18:33;;;;;;;;;;;;;;;7.06;100.00;98822.36;1702675;83;20098;-71
2021/12/11 01:21:03;;;;;;;;;;;;;;;7.02;100.00;98827.90;1703750;83;21787;-70
2021/12/11 01:23:46;;;;;;;;;;;;;;;7.00;100.00;98825.20;1702184;83;20120;-71
2021/12/11 01:25:59;;;;;;;;;;;;;;;6.97;100.00;98823.84;1713249;83;20418;-71
2021/12/11 01:28:25;;;;;;;;;;;;;;;6.96;100.00;98827.58;1720246;82;20509;-72
2021/12/11 01:30:52;;;;;;;;;;;;;;;6.93;100.00;98819.24;1720630;82;20427;-70
2021/12/11 01:33:19;;;;;;;;;;;;;;;6.89;100.00;98819.47;1700147;83;21480;-71
2021/12/11 01:35:45;;;;;;;;;;;;;;;6.85;100.00;98819.95;1719881;83;20125;-70
2021/12/11 01:38:19;;;;;;;;;;;;;;;6.82;100.00;98814.31;1718604;83;20161;-70
2021/12/11 01:40:48;;;;;;;;;;;;;;;6.80;100.00;98809.22;1719430;83;20085;-70
2021/12/11 01:43:16;;;;;;;;;;;;;;;6.78;100.00;98812.65;1717310;82;20534;-70
2021/12/11 01:45:47;;;;;;;;;;;;;;;6.76;100.00;98808.62;1717344;82;21991;-70
2021/12/11 01:48:18;;;;;;;;;;;;;;;6.76;100.00;98816.62;1718420;83;20441;-70
2021/12/11 01:50:47;;;;;;;;;;;;;;;6.72;100.00;98810.98;1712857;82;20471;-69
2021/12/11 01:53:24;;;;;;;;;;;;;;;6.70;100.00;98813.63;1712832;82;20158;-70
2021/12/11 01:56:02;;;;;;;;;;;;;;;6.68;100.00;98809.05;1698157;82;20443;-71
2021/12/11 01:58:57;;;;;;;;;;;;;;;6.63;100.00;98809.25;1714473;82;22383;-68
2021/12/11 02:01:26;;;;;;;;;;;;;;;6.62;100.00;98799.66;1732578;81;20116;-70
2021/12/11 02:03:53;;;;;;;;;;;;;;;6.59;100.00;98802.82;1733457;81;20074;-69
2021/12/11 02:06:20;;;;;;;;;;;;;;;6.56;100.00;98796.63;1733551;81;20134;-70
2021/12/11 02:08:47;;;;;;;;;;;;;;;6.54;100.00;98812.09;1733428;83;20115;-71
2021/12/11 02:11:22;;;;;;;;;;;;;;;6.50;100.00;98785.62;1700812;82;21148;-72
2021/12/11 02:13:53;;;;;;;;;;;;;;;6.48;100.00;98810.91;1727796;81;20180;-70
2021/12/11 02:16:26;;;;;;;;;;;;;;;6.46;100.00;98819.14;1704633;83;20096;-70
2021/12/11 02:18:58;;;;;;;;;;;;;;;6.43;100.00;98835.11;1704422;83;20164;-69
2021/12/11 02:21:31;;;;;;;;;;;;;;;6.42;100.00;98831.37;1707220;81;20532;-71
2021/12/11 02:24:03;;;;;;;;;;;;;;;6.38;100.00;98835.03;1749304;80;21782;-68
2021/12/11 02:26:31;;;;;;;;;;;;;;;6.40;100.00;98841.46;1729776;82;20168;-71
2021/12/11 02:29:13;;;;;;;;;;;;;;;6.37;100.00;98840.59;1730828;81;20203;-72
2021/12/11 02:31:55;;;;;;;;;;;;;;;6.34;100.00;98831.76;1729813;81;20135;-72
2021/12/11 02:34:29;;;;;;;;;;;;;;;6.33;100.00;98832.83;1729672;81;20147;-71
2021/12/11 02:37:02;;;;;;;;;;;;;;;6.31;100.00;98832.25;1724761;83;21163;-71
2021/12/11 02:39:36;;;;;;;;;;;;;;;6.28;100.00;98838.08;1730136;81;20127;-74
2021/12/11 02:42:10;;;;;;;;;;;;;;;6.26;100.00;98831.64;1730820;81;20472;-72
2021/12/11 02:44:40;;;;;;;;;;;;;;;6.25;100.00;98833.21;1729899;81;20151;-71
2021/12/11 02:47:13;;;;;;;;;;;;;;;6.23;100.00;98840.14;1729554;81;20174;-73
2021/12/11 02:49:46;;;;;;;;;;;;;;;6.21;100.00;98835.56;1699792;81;22102;-74
2021/12/11 02:52:19;;;;;;;;;;;;;;;6.18;100.00;98827.53;1733061;81;20166;-70
2021/12/11 02:54:53;;;;;;;;;;;;;;;6.18;100.00;98848.85;1730692;81;20180;-72
2021/12/11 02:57:24;;;;;;;;;;;;;;;6.18;100.00;98813.41;1730908;81;20578;-70
2021/12/11 02:59:50;;;;;;;;;;;;;;;6.22;100.00;98830.01;1710919;81;20179;-69
2021/12/11 03:02:20;;;;;;;;;;;;;;;6.22;100.00;98842.50;1707304;82;21153;-72
2021/12/11 03:04:54;;;;;;;;;;;;;;;6.18;100.00;98832.06;1687751;83;20188;-71
2021/12/11 03:07:17;;;;;;;;;;;;;;;6.14;100.00;98825.06;1692423;83;20153;-69
2021/12/11 03:09:48;;;;;;;;;;;;;;;6.13;100.00;98838.12;1711841;82;20195;-70
2021/12/11 03:12:16;;;;;;;;;;;;;;;6.12;100.00;98826.36;1708738;82;20496;-70
2021/12/11 03:14:43;;;;;;;;;;;;;;;6.13;100.00;98827.98;1697461;82;21133;-70
2021/12/11 03:17:11;;;;;;;;;;;;;;;6.09;100.00;98829.52;1692677;82;20203;-69
2021/12/11 03:19:39;;;;;;;;;;;;;;;6.11;100.00;98829.55;1694944;82;20462;-71
2021/12/11 03:22:08;;;;;;;;;;;;;;;6.10;100.00;98833.78;1694488;82;20139;-71
2021/12/11 03:24:34;;;;;;;;;;;;;;;6.08;100.00;98834.04;1693922;83;20511;-70
2021/12/11 03:27:01;;;;;;;;;;;;;;;6.07;100.00;98843.06;1691409;83;21267;-71
2021/12/11 03:29:29;;;;;;;;;;;;;;;6.03;100.00;98836.63;1693380;83;20155;-69
2021/12/11 03:31:56;;;;;;;;;;;;;;;6.05;100.00;98835.86;1716347;81;20190;-70
2021/12/11 03:34:25;;;;;;;;;;;;;;;6.06;100.00;98838.80;1719230;82;20116;-71
2021/12/11 03:36:52;;;;;;;;;;;;;;;6.05;100.00;98842.52;1743614;81;20439;-71
2021/12/11 03:39:24;;;;;;;;;;;;;;;6.05;100.00;98837.69;1723936;82;21138;-70
2021/12/11 03:41:51;;;;;;;;;;;;;;;6.05;100.00;98842.52;1744728;82;20158;-70
2021/12/11 03:44:19;;;;;;;;;;;;;;;6.03;100.00;98829.13;1743809;81;20083;-70
2021/12/11 03:46:46;;;;;;;;;;;;;;;6.02;100.00;98830.99;1742879;81;20077;-69
2021/12/11 03:49:16;;;;;;;;;;;;;;;5.99;100.00;98810.97;1712811;82;20421;-69
2021/12/11 03:51:46;;;;;;;;;;;;;;;6.01;100.00;98830.72;1730374;81;21148;-70
2021/12/11 03:54:15;;;;;;;;;;;;;;;6.01;100.00;98836.85;1744073;82;20094;-69
2021/12/11 03:56:42;;;;;;;;;;;;;;;6.00;100.00;98837.91;1745426;81;20123;-70
2021/12/11 03:59:10;;;;;;;;;;;;;;;6.03;100.00;98821.97;1733614;81;20085;-69
2021/12/11 04:01:51;;;;;;;;;;;;;;;6.05;100.00;98852.34;1711261;82;20466;-70
2021/12/11 04:04:33;;;;;;;;;;;;;;;6.05;100.00;98843.85;1710475;81;21177;-68
2021/12/11 04:07:00;;;;;;;;;;;;;;;6.04;100.00;98858.73;1708630;82;20193;-69
2021/12/11 04:09:26;;;;;;;;;;;;;;;6.03;100.00;98839.78;1710502;82;20126;-69
2021/12/11 04:11:54;;;;;;;;;;;;;;;6.05;100.00;98850.52;1692963;82;20149;-70
2021/12/11 04:14:24;;;;;;;;;;;;;;;6.01;100.00;98842.71;1706009;82;20126;-70
2021/12/11 04:16:51;;;;;;;;;;;;;;;6.03;100.00;98844.61;1726525;81;21789;-71
2021/12/11 04:19:19;;;;;;;;;;;;;;;6.02;100.00;98844.31;1708482;84;20443;-70
2021/12/11 04:21:46;;;;;;;;;;;;;;;6.03;100.00;98848.61;1721318;82;20461;-70
2021/12/11 04:24:13;;;;;;;;;;;;;;;6.01;100.00;98854.17;1737824;81;20115;-69
2021/12/11 04:26:41;;;;;;;;;;;;;;;6.02;100.00;98828.33;1739547;80;20204;-70
2021/12/11 04:29:07;;;;;;;;;;;;;;;6.00;100.00;98838.41;1745848;81;21187;-70
2021/12/11 04:31:35;;;;;;;;;;;;;;;6.03;100.00;98826.47;1768205;80;20117;-69
2021/12/11 04:34:03;;;;;;;;;;;;;;;6.01;100.00;98820.88;1753012;81;20103;-70
2021/12/11 04:36:34;;;;;;;;;;;;;;;6.03;100.00;98813.98;1736507;81;20087;-69
2021/12/11 04:39:01;;;;;;;;;;;;;;;6.01;100.00;98830.19;1736642;82;20111;-69
2021/12/11 04:41:35;;;;;;;;;;;;;;;6.01;100.00;98840.85;1736326;81;21147;-69
2021/12/11 04:44:01;;;;;;;;;;;;;;;6.01;100.00;98840.05;1736899;81;20170;-70
2021/12/11 04:46:27;;;;;;;;;;;;;;;6.01;100.00;98841.38;1736321;82;20453;-70
2021/12/11 04:49:15;;;;;;;;;;;;;;;5.98;100.00;98850.66;1736419;82;20178;-69
2021/12/11 04:51:51;;;;;;;;;;;;;;;5.99;100.00;98839.48;1735731;82;20119;-69
2021/12/11 04:59:48;;;;;;;;;;;;;;;5.99;100.00;98834.15;1722791;81;20449;-69
2021/12/11 05:04:54;;;;;;;;;;;;;;;6.00;100.00;98856.56;1708109;84;20146;-70
2021/12/11 05:07:31;;;;;;;;;;;;;;;5.99;100.00;98854.12;1728977;82;20910;-69
2021/12/11 05:10:04;;;;;;;;;;;;;;;5.98;100.00;98849.33;1732678;82;20170;-69
2021/12/11 05:14:53;;;;;;;;;;;;;;;6.00;100.00;98857.89;1732362;82;20435;-69
2021/12/11 05:17:21;;;;;;;;;;;;;;;5.98;100.00;98837.88;1722563;81;20142;-70
2021/12/11 05:19:47;;;;;;;;;;;;;;;5.98;100.00;98842.67;1711025;82;21099;-69
2021/12/11 05:22:15;;;;;;;;;;;;;;;6.00;100.00;98838.41;1725180;82;20478;-69
2021/12/11 05:24:44;;;;;;;;;;;;;;;5.97;100.00;98834.91;1709031;84;20098;-69
2021/12/11 05:27:11;;;;;;;;;;;;;;;5.98;100.00;98840.01;1728371;82;20083;-69
2021/12/11 05:29:37;;;;;;;;;;;;;;;5.97;100.00;98837.57;1738323;82;20115;-68
2021/12/11 05:32:06;;;;;;;;;;;;;;;6.00;100.00;98837.08;1737914;81;21144;-68
2021/12/11 05:34:33;;;;;;;;;;;;;;;5.99;100.00;98838.14;1738425;82;20115;-70
2021/12/11 05:37:00;;;;;;;;;;;;;;;6.00;100.00;98829.09;1737936;82;20135;-68
2021/12/11 05:39:29;;;;;;;;;;;;;;;5.98;100.00;98838.67;1717533;82;20729;-68
2021/12/11 05:41:56;;;;;;;;;;;;;;;5.99;100.00;98842.14;1730021;82;20092;-70
2021/12/11 05:44:25;;;;;;;;;;;;;;;6.00;100.00;98820.59;1738440;82;21858;-70
2021/12/11 05:46:52;;;;;;;;;;;;;;;5.99;100.00;98836.81;1737860;82;20071;-70
2021/12/11 05:49:18;;;;;;;;;;;;;;;6.00;100.00;98851.73;1738391;82;20095;-67
2021/12/11 05:51:46;;;;;;;;;;;;;;;6.03;100.00;98844.61;1737794;81;20150;-73
2021/12/11 05:54:15;;;;;;;;;;;;;;;6.02;100.00;98817.67;1738586;81;20413;-69
2021/12/11 05:56:43;;;;;;;;;;;;;;;6.03;100.00;98842.45;1737645;82;21141;-68
2021/12/11 05:59:11;;;;;;;;;;;;;;;6.03;100.00;98843.28;1737715;82;20075;-68
2021/12/11 06:01:41;;;;;;;;;;;;;;;6.04;100.00;98847.55;1760537;79;20158;-68
2021/12/11 06:04:11;;;;;;;;;;;;;;;6.04;100.00;98846.22;1770224;81;20098;-68
2021/12/11 06:06:38;;;;;;;;;;;;;;;6.05;100.00;98848.35;1770213;81;20125;-68
2021/12/11 06:09:06;;;;;;;;;;;;;;;6.05;100.00;98847.02;1770200;81;21157;-68
2021/12/11 06:11:36;;;;;;;;;;;;;;;6.03;100.00;98840.63;1769836;81;20463;-69
2021/12/11 06:14:06;;;;;;;;;;;;;;;6.07;100.00;98839.59;1766637;78;20098;-69
2021/12/11 06:16:33;;;;;;;;;;;;;;;6.06;100.00;98830.00;1771995;79;20165;-68
2021/12/11 06:19:04;;;;;;;;;;;;;;;6.06;100.00;98834.00;1750486;81;20168;-68
2021/12/11 06:21:30;;;;;;;;;;;;;;;6.06;100.00;98820.15;1739064;82;21238;-67
2021/12/11 06:23:57;;;;;;;;;;;;;;;6.06;100.00;98826.00;1739725;79;20119;-67
2021/12/11 06:26:27;;;;;;;;;;;;;;;6.05;100.00;98837.19;1765202;78;20165;-69
2021/12/11 06:28:54;;;;;;;;;;;;;;;6.05;100.00;98830.53;1774035;79;20663;-70
2021/12/11 06:31:21;;;;;;;;;;;;;;;6.06;100.00;98832.66;1783679;79;20074;-70
2021/12/11 06:33:51;;;;;;;;;;;;;;;6.06;100.00;98833.47;1768509;81;21171;-70
2021/12/11 06:36:19;;;;;;;;;;;;;;;6.08;100.00;98830.58;1769295;79;20125;-68
2021/12/11 06:38:48;;;;;;;;;;;;;;;6.08;100.00;98841.23;1778810;79;20111;-68
2021/12/11 06:41:16;;;;;;;;;;;;;;;6.06;100.00;98837.47;1772643;80;20861;-68
2021/12/11 06:43:43;;;;;;;;;;;;;;;6.07;100.00;98847.06;1746578;81;20140;-70
2021/12/11 06:46:14;;;;;;;;;;;;;;;6.09;100.00;98850.30;1738295;81;22736;-69
2021/12/11 06:48:55;;;;;;;;;;;;;;;6.07;100.00;98852.39;1750153;79;20428;-68
2021/12/11 06:51:30;;;;;;;;;;;;;;;6.08;100.00;98834.57;1765081;81;21162;-71
2021/12/11 06:54:00;;;;;;;;;;;;;;;6.08;100.00;98832.70;1769940;81;20628;-70
2021/12/11 06:56:27;;;;;;;;;;;;;;;6.08;100.00;98834.57;1769956;79;20134;-68
2021/12/11 06:58:56;;;;;;;;;;;;;;;6.07;100.00;98842.27;1751602;80;21938;-70
2021/12/11 07:01:26;;;;;;;;;;;;;;;6.12;100.00;98841.81;1737387;79;20509;-68
2021/12/11 07:03:52;;;;;;;;;;;;;;;6.10;100.00;98853.26;1716001;83;20085;-70
2021/12/11 07:06:20;;;;;;;;;;;;;;;6.11;100.00;98861.52;1714569;81;20181;-70
2021/12/11 07:08:50;;;;;;;;;;;;;;;6.10;100.00;98851.93;1714216;81;20494;-69
2021/12/11 07:11:20;;;;;;;;;;;;;;;6.11;100.00;98860.72;1712526;81;20530;-69
2021/12/11 07:13:47;;;;;;;;;;;;;;;6.12;100.00;98875.12;1721262;81;20249;-69
2021/12/11 07:16:17;;;;;;;;;;;;;;;6.14;100.00;98875.69;1723197;79;20386;-67
2021/12/11 07:18:45;;;;;;;;;;;;;;;6.15;100.00;98870.66;1719581;81;20205;-68
2021/12/11 07:21:13;;;;;;;;;;;;;;;6.11;100.00;98886.84;1720384;81;20171;-70
2021/12/11 07:23:47;;;;;;;;;;;;;;;6.13;100.00;98886.08;1676013;84;21177;-69
2021/12/11 07:26:23;;;;;;;;;;;;;;;6.14;100.00;98892.20;1665670;83;20253;-71
2021/12/11 07:28:52;;;;;;;;;;;;;;;6.14;100.00;98898.87;1667222;83;20178;-71
2021/12/11 07:31:21;;;;;;;;;;;;;;;6.13;100.00;98899.41;1670301;83;20239;-68
2021/12/11 07:33:49;;;;;;;;;;;;;;;6.13;100.00;98887.94;1682144;84;20180;-72
2021/12/11 07:36:16;;;;;;;;;;;;;;;6.12;100.00;98904.95;1718081;81;21168;-73
2021/12/11 07:38:43;;;;;;;;;;;;;;;6.14;100.00;98898.34;1714820;81;20191;-71
2021/12/11 07:41:12;;;;;;;;;;;;;;;6.12;100.00;98899.09;1713665;81;20441;-69
2021/12/11 07:43:39;;;;;;;;;;;;;;;6.12;100.00;98903.09;1718682;81;20192;-68
2021/12/11 07:46:06;;;;;;;;;;;;;;;6.12;100.00;98897.77;1709367;81;20417;-69
2021/12/11 07:48:34;;;;;;;;;;;;;;;6.14;100.00;98898.87;1720452;81;21158;-69
2021/12/11 07:51:01;;;;;;;;;;;;;;;6.14;100.00;98878.88;1724768;81;20180;-69
2021/12/11 07:53:27;;;;;;;;;;;;;;;6.14;100.00;98901.53;1720580;81;20223;-69
2021/12/11 07:55:54;;;;;;;;;;;;;;;6.14;100.00;98894.34;1725157;81;20169;-69
2021/12/11 07:58:22;;;;;;;;;;;;;;;6.14;100.00;98899.67;1721955;80;20166;-69
2021/12/11 08:00:49;;;;;;;;;;;;;;;6.15;100.00;98887.15;1731590;80;21180;-68
2021/12/11 08:03:18;;;;;;;;;;;;;;;6.16;100.00;98897.58;1770655;79;20163;-70
2021/12/11 08:05:48;;;;;;;;;;;;;;;6.15;100.00;98904.47;1739913;81;20177;-67
2021/12/11 08:08:15;;;;;;;;;;;;;;;6.14;100.00;98897.00;1709624;81;20232;-64
2021/12/11 08:10:45;;;;;;;;;;;;;;;6.13;100.00;98888.74;1711302;81;20157;-68
2021/12/11 08:13:13;;;;;;;;;;;;;;;6.14;100.00;98899.67;1712002;81;20214;-67
2021/12/11 08:15:44;;;;;;;;;;;;;;;6.15;100.00;98907.13;1707206;81;20164;-69
2021/12/11 08:18:12;;;;;;;;;;;;;;;6.12;100.00;98895.10;1723346;83;20147;-69
2021/12/11 08:20:40;;;;;;;;;;;;;;;6.14;100.00;98907.66;1695241;83;20175;-69
2021/12/11 08:23:08;;;;;;;;;;;;;;;6.13;100.00;98914.58;1724491;83;20164;-70
2021/12/11 08:25:35;;;;;;;;;;;;;;;6.11;100.00;98899.36;1730758;81;21549;-67
2021/12/11 08:28:06;;;;;;;;;;;;;;;6.13;100.00;98918.58;1719004;83;20151;-68
2021/12/11 08:30:34;;;;;;;;;;;;;;;6.12;100.00;98903.63;1724796;83;20129;-68
2021/12/11 08:33:03;;;;;;;;;;;;;;;6.12;100.00;98919.08;1702778;81;20169;-70
2021/12/11 08:35:30;;;;;;;;;;;;;;;6.12;100.00;98919.08;1723785;83;20186;-69
2021/12/11 08:37:58;;;;;;;;;;;;;;;6.08;100.00;98919.30;1724273;83;21842;-70
2021/12/11 08:40:28;;;;;;;;;;;;;;;6.08;100.00;98912.64;1721493;83;20120;-68
2021/12/11 08:42:55;;;;;;;;;;;;;;;6.09;100.00;98916.10;1725463;83;20164;-70
2021/12/11 08:45:25;;;;;;;;;;;;;;;6.10;100.00;98920.37;1714251;83;20741;-70
2021/12/11 08:47:55;;;;;;;;;;;;;;;6.07;100.00;98917.66;1694209;84;20184;-70
2021/12/11 08:50:26;;;;;;;;;;;;;;;6.07;100.00;98916.86;1697305;83;21224;-69
2021/12/11 08:52:55;;;;;;;;;;;;;;;6.06;100.00;98914.73;1734799;81;20126;-68
2021/12/11 08:55:27;;;;;;;;;;;;;;;6.06;100.00;98906.73;1745517;81;20454;-68
2021/12/11 08:57:58;;;;;;;;;;;;;;;5.99;100.00;98909.54;1734439;81;20208;-69
2021/12/11 09:00:39;;;;;;;;;;;;;;;6.04;100.00;98919.48;1742631;81;20260;-67
2021/12/11 09:03:09;;;;;;;;;;;;;;;6.03;100.00;98907.22;1717246;81;21195;-68
2021/12/11 09:05:45;;;;;;;;;;;;;;;6.03;100.00;98915.21;1707812;83;20151;-70
2021/12/11 09:08:16;;;;;;;;;;;;;;;6.02;100.00;98905.59;1698447;83;20253;-70
2021/12/11 09:11:06;;;;;;;;;;;;;;;5.97;100.00;98906.30;1705501;83;20132;-70
2021/12/11 09:13:45;;;;;;;;;;;;;;;5.99;100.00;98911.41;1654284;85;20247;-70
2021/12/11 09:16:15;;;;;;;;;;;;;;;6.00;100.00;98898.35;1642933;85;21504;-70
2021/12/11 09:18:48;;;;;;;;;;;;;;;6.00;100.00;98916.50;1649417;85;20144;-70
2021/12/11 09:21:32;;;;;;;;;;;;;;;6.01;100.00;98919.44;1641905;84;20157;-71
2021/12/11 09:24:13;;;;;;;;;;;;;;;6.01;100.00;98899.98;1647942;84;20225;-72
2021/12/11 09:26:58;;;;;;;;;;;;;;;5.98;100.00;98907.94;1649347;84;20200;-70
2021/12/11 09:29:35;;;;;;;;;;;;;;;5.97;100.00;98912.16;1622280;85;21176;-69
2021/12/11 09:32:07;;;;;;;;;;;;;;;6.00;100.00;98909.01;1641559;84;20157;-70
2021/12/11 09:34:37;;;;;;;;;;;;;;;6.00;100.00;98915.67;1705780;84;20161;-69
2021/12/11 09:37:04;;;;;;;;;;;;;;;5.97;100.00;98904.17;1693149;83;20215;-67
2021/12/11 09:39:37;;;;;;;;;;;;;;;5.97;100.00;98905.50;1682755;82;20179;-67
2021/12/11 09:42:04;;;;;;;;;;;;;;;5.98;100.00;98909.80;1688292;83;21158;-69
2021/12/11 09:44:34;;;;;;;;;;;;;;;5.98;100.00;98907.13;1685826;84;20167;-68
2021/12/11 09:47:24;;;;;;;;;;;;;;;5.97;100.00;98908.16;1683773;83;20247;-68
2021/12/11 09:49:57;;;;;;;;;;;;;;;5.98;100.00;98898.61;1681693;82;20251;-70
2021/12/11 09:52:24;;;;;;;;;;;;;;;5.96;100.00;98918.55;1709009;81;20169;-68
2021/12/11 09:55:01;;;;;;;;;;;;;;;5.93;100.00;98905.16;1707197;82;21154;-67
2021/12/11 09:57:31;;;;;;;;;;;;;;;5.93;100.00;98914.48;1707687;84;20138;-70
2021/12/11 09:59:58;;;;;;;;;;;;;;;5.91;100.00;98915.77;1747674;80;20188;-69
2021/12/11 10:02:28;;;;;;;;;;;;;;;5.94;100.00;98912.64;1758813;81;20148;-67
2021/12/11 10:05:00;;;;;;;;;;;;;;;5.90;100.00;98912.27;1738156;80;20175;-67
2021/12/11 10:07:36;;;;;;;;;;;;;;;5.91;100.00;98911.23;1737151;81;21143;-70
2021/12/11 10:10:02;;;;;;;;;;;;;;;5.91;100.00;98910.44;1756051;80;20145;-69
2021/12/11 10:12:32;;;;;;;;;;;;;;;5.89;100.00;98901.88;1774835;81;20163;-69
2021/12/11 10:15:05;;;;;;;;;;;;;;;5.85;100.00;98901.52;1769234;79;20145;-67
2021/12/11 10:17:37;;;;;;;;;;;;;;;5.88;100.00;98916.22;1759085;81;20168;-67
2021/12/11 10:20:08;;;;;;;;;;;;;;;5.87;100.00;98914.61;1759626;81;21169;-68
2021/12/11 10:22:35;;;;;;;;;;;;;;;5.85;100.00;98905.52;1759487;81;20148;-67
2021/12/11 10:25:08;;;;;;;;;;;;;;;5.83;100.00;98902.81;1759653;81;20462;-68
2021/12/11 10:27:34;;;;;;;;;;;;;;;5.82;100.00;98911.33;1759796;80;20101;-68
2021/12/11 10:30:01;;;;;;;;;;;;;;;5.82;100.00;98911.33;1759604;80;20134;-68
2021/12/11 10:32:30;;;;;;;;;;;;;;;5.82;100.00;98913.99;1759799;81;21209;-67
2021/12/11 10:35:00;;;;;;;;;;;;;;;5.78;100.00;98915.00;1759581;81;20097;-67
2021/12/11 10:37:30;;;;;;;;;;;;;;;5.77;100.00;98908.05;1747610;81;20444;-68
2021/12/11 10:40:00;;;;;;;;;;;;;;;5.78;100.00;98916.34;1731524;81;20166;-68
2021/12/11 10:42:27;;;;;;;;;;;;;;;5.77;100.00;98909.38;1744231;80;20111;-67
2021/12/11 10:44:55;;;;;;;;;;;;;;;5.76;100.00;98881.67;1731923;81;21153;-68
2021/12/11 10:47:30;;;;;;;;;;;;;;;5.70;100.00;98902.05;1731895;83;20115;-70
2021/12/11 10:49:57;;;;;;;;;;;;;;;5.69;100.00;98899.11;1731853;81;20437;-68
2021/12/11 10:52:27;;;;;;;;;;;;;;;5.71;100.00;98909.02;1731974;81;20628;-69
2021/12/11 10:54:55;;;;;;;;;;;;;;;5.67;100.00;98906.53;1731650;83;20210;-69
2021/12/11 10:57:22;;;;;;;;;;;;;;;5.68;100.00;98906.80;1732016;83;21133;-67
2021/12/11 10:59:51;;;;;;;;;;;;;;;5.68;100.00;98904.66;1731900;83;20385;-68
2021/12/11 11:02:24;;;;;;;;;;;;;;;5.70;100.00;98906.58;1738097;81;20432;-68
2021/12/11 11:04:54;;;;;;;;;;;;;;;5.69;100.00;98908.44;1752699;82;20134;-67
2021/12/11 11:07:21;;;;;;;;;;;;;;;5.72;100.00;98909.81;1753067;82;20448;-68
2021/12/11 11:09:49;;;;;;;;;;;;;;;5.71;100.00;98905.55;1752720;80;21990;-69
2021/12/11 11:12:19;;;;;;;;;;;;;;;5.70;100.00;98903.91;1753015;82;20498;-66
2021/12/11 11:14:47;;;;;;;;;;;;;;;5.68;100.00;98896.15;1752435;81;20121;-68
2021/12/11 11:17:16;;;;;;;;;;;;;;;5.66;100.00;98890.28;1766643;78;20646;-67
2021/12/11 11:19:44;;;;;;;;;;;;;;;5.68;100.00;98908.66;1754541;81;20149;-66
2021/12/11 11:22:13;;;;;;;;;;;;;;;5.66;100.00;98911.58;1735038;81;21753;-68
2021/12/11 11:24:43;;;;;;;;;;;;;;;5.65;100.00;98915.27;1744977;81;20104;-68
2021/12/11 11:27:10;;;;;;;;;;;;;;;5.59;100.00;98905.58;1746399;81;20158;-68
2021/12/11 11:29:37;;;;;;;;;;;;;;;5.61;100.00;98923.47;1731502;81;20148;-65
2021/12/11 11:32:07;;;;;;;;;;;;;;;5.61;100.00;98926.63;1751929;79;20171;-68
2021/12/11 11:34:40;;;;;;;;;;;;;;;5.58;100.00;98924.75;1753889;80;21144;-68
2021/12/11 11:37:04;;;;;;;;;;;;;;;5.57;100.00;98926.30;1723744;80;20166;-66
2021/12/11 11:39:31;;;;;;;;;;;;;;;5.56;100.00;98924.67;1769141;79;20476;-68
2021/12/11 11:42:01;;;;;;;;;;;;;;;5.54;100.00;98925.45;1762035;79;20481;-64
2021/12/11 11:44:28;;;;;;;;;;;;;;;5.53;100.00;98933.13;1754717;80;20190;-67
2021/12/11 11:46:57;;;;;;;;;;;;;;;5.52;100.00;98929.67;1761625;79;21131;-69
2021/12/11 11:49:26;;;;;;;;;;;;;;;5.51;100.00;98931.22;1762302;79;20182;-68
2021/12/11 11:51:56;;;;;;;;;;;;;;;5.47;100.00;98924.25;1751950;79;20144;-67
2021/12/11 11:54:24;;;;;;;;;;;;;;;5.47;100.00;98924.77;1734512;80;20201;-68
2021/12/11 11:57:01;;;;;;;;;;;;;;;5.46;100.00;98928.46;1753422;80;20167;-66
2021/12/11 11:59:31;;;;;;;;;;;;;;;5.43;100.00;98924.95;1765297;80;21178;-68
2021/12/11 12:02:04;;;;;;;;;;;;;;;5.43;100.00;98919.63;1774579;80;20136;-67
2021/12/11 12:04:33;;;;;;;;;;;;;;;5.43;100.00;98924.95;1772865;79;20243;-68
2021/12/11 12:07:03;;;;;;;;;;;;;;;5.38;100.00;98923.80;1789437;79;20183;-67
2021/12/11 12:09:30;;;;;;;;;;;;;;;5.37;100.00;98925.38;1753052;81;20157;-67
2021/12/11 12:11:59;;;;;;;;;;;;;;;5.35;100.00;98924.27;1757622;81;21231;-68
2021/12/11 12:14:30;;;;;;;;;;;;;;;5.34;100.00;98926.66;1699726;83;20136;-67
2021/12/11 12:16:57;;;;;;;;;;;;;;;5.31;100.00;98936.41;1724421;81;20482;-68
2021/12/11 12:19:23;;;;;;;;;;;;;;;5.31;100.00;98931.09;1722992;82;20181;-67
2021/12/11 12:21:54;;;;;;;;;;;;;;;5.31;100.00;98932.42;1718218;83;20213;-66
2021/12/11 12:24:22;;;;;;;;;;;;;;;5.29;100.00;98931.88;1706065;83;21150;-67
2021/12/11 12:26:50;;;;;;;;;;;;;;;5.30;100.00;98936.14;1667608;86;20193;-65
2021/12/11 12:29:19;;;;;;;;;;;;;;;5.25;100.00;98928.05;1692998;83;20150;-67
2021/12/11 12:31:51;;;;;;;;;;;;;;;5.27;100.00;98937.14;1744930;81;20673;-66
2021/12/11 12:34:18;;;;;;;;;;;;;;;5.26;100.00;98941.63;1755533;81;20149;-67
2021/12/11 12:36:47;;;;;;;;;;;;;;;5.24;100.00;98932.27;1715121;81;20165;-67
2021/12/11 12:39:16;;;;;;;;;;;;;;;5.23;100.00;98938.12;1711643;83;20146;-67
2021/12/11 12:41:57;;;;;;;;;;;;;;;5.24;100.00;98940.25;1714898;83;20198;-67
2021/12/11 12:44:21;;;;;;;;;;;;;;;5.22;100.00;98944.49;1711832;83;20279;-67
2021/12/11 12:46:58;;;;;;;;;;;;;;;5.23;100.00;98942.11;1717106;83;20234;-69
2021/12/11 12:49:29;;;;;;;;;;;;;;;5.21;100.00;98942.05;1716890;81;21840;-67
2021/12/11 12:51:58;;;;;;;;;;;;;;;5.20;100.00;98941.25;1722533;81;20477;-67
2021/12/11 12:54:25;;;;;;;;;;;;;;;5.19;100.00;98945.47;1718898;83;20203;-68
2021/12/11 12:57:07;;;;;;;;;;;;;;;5.17;100.00;98951.03;1709353;83;20195;-70
2021/12/11 12:59:33;;;;;;;;;;;;;;;5.15;100.00;98950.45;1720730;81;20551;-66
2021/12/11 13:02:04;;;;;;;;;;;;;;;5.14;100.00;98964.28;1745632;81;21084;-68
2021/12/11 13:04:34;;;;;;;;;;;;;;;5.12;100.00;98953.06;1741108;80;20145;-70
2021/12/11 13:07:03;;;;;;;;;;;;;;;5.10;100.00;98956.47;1733957;81;20183;-68
2021/12/11 13:09:41;;;;;;;;;;;;;;;5.11;100.00;98958.08;1731002;81;20544;-66
2021/12/11 13:12:12;;;;;;;;;;;;;;;5.09;100.00;98958.83;1739957;81;20525;-68